Time;durP1;ratioP1;P1;durP2;ratioP2;P2;SDS_P1;SDS_P2;PMS_P1;PMS_P2;Temp;Humidity;BMP_temperature;BMP_pressure;BME280_temperature;BME280_humidity;BME280_pressure;Samples;Min_cycle;Max_cycle;Signal;HPM_P1;HPM_P2
2023/03/06 00:01:27;;;;;;;2.88;1.70;;;3.80;99.90;;;;;;5073400;28;20644;-61
2023/03/06 00:03:54;;;;;;;1.90;1.58;;;3.80;99.90;;;;;;5073139;28;20224;-61
2023/03/06 00:06:21;;;;;;;3.47;1.85;;;3.80;99.90;;;;;;5073365;28;20208;-61
2023/03/06 00:08:48;;;;;;;2.30;1.80;;;3.80;99.90;;;;;;5073017;28;20229;-63
2023/03/06 00:11:15;;;;;;;2.90;2.10;;;3.80;99.90;;;;;;5073374;28;20569;-62
2023/03/06 00:13:41;;;;;;;2.65;1.30;;;3.80;99.90;;;;;;5072657;28;20652;-62
2023/03/06 00:16:08;;;;;;;2.00;1.67;;;3.70;99.90;;;;;;5072678;28;20732;-63
2023/03/06 00:18:36;;;;;;;5.63;2.22;;;3.70;99.90;;;;;;5072758;28;20235;-63
2023/03/06 00:21:07;;;;;;;3.92;2.17;;;3.70;99.90;;;;;;5072792;28;20197;-62
2023/03/06 00:23:33;;;;;;;4.63;2.65;;;3.70;99.90;;;;;;5073222;28;20190;-61
2023/03/06 00:26:00;;;;;;;4.20;1.95;;;3.70;99.90;;;;;;5073401;28;20254;-61
2023/03/06 00:28:29;;;;;;;3.20;2.33;;;3.70;99.90;;;;;;5077083;28;20229;-62
2023/03/06 00:30:56;;;;;;;2.95;2.10;;;3.70;99.90;;;;;;5077452;28;20201;-61
2023/03/06 00:33:23;;;;;;;3.05;2.10;;;3.60;99.90;;;;;;5076957;28;20232;-61
2023/03/06 00:35:51;;;;;;;3.67;2.10;;;3.60;99.90;;;;;;5077056;28;20224;-62
2023/03/06 00:38:18;;;;;;;2.13;1.88;;;3.60;99.90;;;;;;5077250;28;20224;-62
2023/03/06 00:40:45;;;;;;;3.25;2.25;;;3.60;99.90;;;;;;5077149;28;20211;-62
2023/03/06 00:43:12;;;;;;;2.97;2.75;;;3.60;99.90;;;;;;5076876;28;20212;-61
2023/03/06 00:45:39;;;;;;;3.72;1.80;;;3.60;99.90;;;;;;5077057;28;20389;-60
2023/03/06 00:48:07;;;;;;;3.85;2.10;;;3.60;99.90;;;;;;5076290;28;20201;-62
2023/03/06 00:50:34;;;;;;;3.78;2.40;;;3.60;99.90;;;;;;5076794;28;20224;-61
2023/03/06 00:53:02;;;;;;;2.90;2.65;;;3.60;99.90;;;;;;5076637;28;20556;-61
2023/03/06 00:55:29;;;;;;;3.70;2.20;;;3.60;99.90;;;;;;5075994;28;20615;-62
2023/03/06 00:57:56;;;;;;;3.15;2.35;;;3.60;99.90;;;;;;5076052;28;20617;-59
2023/03/06 01:00:23;;;;;;;3.22;1.92;;;3.60;99.90;;;;;;5078249;28;20204;-60
2023/03/06 01:02:52;;;;;;;8.25;2.15;;;3.60;99.90;;;;;;5081271;28;20223;-62
2023/03/06 01:05:19;;;;;;;2.22;2.03;;;3.60;99.90;;;;;;5082875;28;20666;-61
2023/03/06 01:07:46;;;;;;;3.30;1.90;;;3.60;99.90;;;;;;5080354;28;20634;-61
2023/03/06 01:10:14;;;;;;;5.40;2.40;;;3.60;99.90;;;;;;5080805;28;20254;-61
2023/03/06 01:12:41;;;;;;;2.50;2.30;;;3.60;99.90;;;;;;5082448;28;20705;-62
2023/03/06 01:15:09;;;;;;;2.10;1.80;;;3.60;99.90;;;;;;5081414;28;20208;-61
2023/03/06 01:17:35;;;;;;;3.60;1.90;;;3.60;99.90;;;;;;5080552;28;20227;-60
2023/03/06 01:20:02;;;;;;;2.97;1.80;;;3.60;99.90;;;;;;5080425;28;20221;-61
2023/03/06 01:22:29;;;;;;;4.13;2.03;;;3.60;99.90;;;;;;5077088;28;20287;-61
2023/03/06 01:24:56;;;;;;;3.25;1.70;;;3.60;99.90;;;;;;5076054;28;20208;-62
2023/03/06 01:27:24;;;;;;;3.28;2.00;;;3.60;99.90;;;;;;5076062;28;20215;-61
2023/03/06 01:29:51;;;;;;;4.90;2.30;;;3.60;99.90;;;;;;5075980;28;20228;-61
2023/03/06 01:32:17;;;;;;;5.35;2.50;;;3.60;99.90;;;;;;5075987;28;20203;-61
2023/03/06 01:34:44;;;;;;;2.35;2.15;;;3.60;99.90;;;;;;5076664;28;20209;-61
2023/03/06 01:37:11;;;;;;;5.93;3.47;;;3.60;99.90;;;;;;5075586;28;20223;-61
2023/03/06 01:39:38;;;;;;;6.28;3.35;;;3.60;99.90;;;;;;5075066;28;20220;-62
2023/03/06 01:42:05;;;;;;;4.95;2.50;;;3.60;99.90;;;;;;5075889;28;20197;-60
2023/03/06 01:44:33;;;;;;;3.90;2.38;;;3.60;99.90;;;;;;5075871;28;20205;-61
2023/03/06 01:47:01;;;;;;;4.32;2.40;;;3.50;99.90;;;;;;5075447;28;20205;-63
2023/03/06 01:49:31;;;;;;;5.25;2.17;;;3.60;99.90;;;;;;5075376;28;20592;-62
2023/03/06 01:52:01;;;;;;;3.47;2.35;;;3.50;99.90;;;;;;5075846;28;20279;-62
2023/03/06 01:54:30;;;;;;;3.60;2.63;;;3.50;99.90;;;;;;5076141;28;20185;-62
2023/03/06 01:57:03;;;;;;;7.35;2.50;;;3.50;99.90;;;;;;5075410;28;20225;-60
2023/03/06 01:59:32;;;;;;;2.80;2.60;;;3.50;99.90;;;;;;5075035;28;20247;-61
2023/03/06 02:02:03;;;;;;;2.13;2.00;;;3.50;99.90;;;;;;5075377;28;20216;-62
2023/03/06 02:04:29;;;;;;;3.08;2.60;;;3.50;99.90;;;;;;5076397;28;20208;-60
2023/03/06 02:06:59;;;;;;;3.35;2.40;;;3.50;99.90;;;;;;5077410;28;20204;-62
2023/03/06 02:09:29;;;;;;;5.90;3.45;;;3.50;99.90;;;;;;5077307;28;20217;-61
2023/03/06 02:11:56;;;;;;;4.38;2.10;;;3.50;99.90;;;;;;5076347;28;20200;-61
2023/03/06 02:14:23;;;;;;;3.35;3.05;;;3.40;99.90;;;;;;5075896;28;20669;-62
2023/03/06 02:16:51;;;;;;;4.28;2.88;;;3.40;99.90;;;;;;5075220;28;20701;-60
2023/03/06 02:19:30;;;;;;;4.63;2.20;;;3.40;99.90;;;;;;5076118;28;20221;-60
2023/03/06 02:21:57;;;;;;;3.92;2.30;;;3.40;99.90;;;;;;5076379;28;20185;-60
2023/03/06 02:24:34;;;;;;;9.25;2.88;;;3.40;99.90;;;;;;5076189;28;20697;-60
2023/03/06 02:27:04;;;;;;;4.82;2.47;;;3.40;99.90;;;;;;5075996;28;20194;-61
2023/03/06 02:29:31;;;;;;;3.28;2.85;;;3.40;99.90;;;;;;5075761;28;20217;-62
2023/03/06 02:31:58;;;;;;;5.43;3.40;;;3.40;99.90;;;;;;5075815;28;20688;-60
2023/03/06 02:34:55;;;;;;;3.00;2.60;;;3.40;99.90;;;;;;5075995;28;20575;-60
2023/03/06 02:37:24;;;;;;;3.13;2.70;;;3.40;99.90;;;;;;5076380;28;20585;-61
2023/03/06 02:39:59;;;;;;;5.18;3.03;;;3.40;99.90;;;;;;5076106;28;20227;-61
2023/03/06 02:42:28;;;;;;;3.72;2.75;;;3.40;99.90;;;;;;5076787;28;20181;-61
2023/03/06 02:44:57;;;;;;;3.45;2.53;;;3.40;99.90;;;;;;5076537;28;20292;-61
2023/03/06 02:47:23;;;;;;;3.88;2.88;;;3.40;99.90;;;;;;5077340;28;20662;-60
2023/03/06 02:49:50;;;;;;;5.88;3.00;;;3.40;99.90;;;;;;5076020;28;20228;-61
2023/03/06 02:52:17;;;;;;;10.27;4.18;;;3.30;99.90;;;;;;5076363;28;20212;-61
2023/03/06 02:54:44;;;;;;;3.80;2.90;;;3.30;99.90;;;;;;5075466;28;20201;-61
2023/03/06 02:57:11;;;;;;;5.13;3.40;;;3.30;99.90;;;;;;5075107;28;20223;-60
2023/03/06 02:59:39;;;;;;;2.72;2.47;;;3.30;99.90;;;;;;5074585;28;20610;-61
2023/03/06 03:02:06;;;;;;;6.22;3.40;;;3.30;99.90;;;;;;5074666;28;20212;-61
2023/03/06 03:04:33;;;;;;;5.45;3.15;;;3.30;99.90;;;;;;5074050;28;20205;-60
2023/03/06 03:06:59;;;;;;;3.67;2.70;;;3.30;99.90;;;;;;5073864;28;20701;-61
2023/03/06 03:09:27;;;;;;;4.43;3.25;;;3.30;99.90;;;;;;5073892;28;20303;-62
2023/03/06 03:11:53;;;;;;;7.80;3.50;;;3.30;99.90;;;;;;5074138;28;20201;-60
2023/03/06 03:14:20;;;;;;;3.38;2.92;;;3.30;99.90;;;;;;5073950;28;20212;-60
2023/03/06 03:16:48;;;;;;;8.07;3.38;;;3.30;99.90;;;;;;5073728;28;20591;-60
2023/03/06 03:19:15;;;;;;;3.50;3.20;;;3.20;99.90;;;;;;5073852;28;20217;-60
2023/03/06 03:21:42;;;;;;;5.88;3.90;;;3.20;99.90;;;;;;5073827;28;20563;-60
2023/03/06 03:24:09;;;;;;;4.65;2.83;;;3.20;99.90;;;;;;5073775;28;20201;-60
2023/03/06 03:26:36;;;;;;;5.10;2.63;;;3.20;99.90;;;;;;5073660;28;20197;-60
2023/03/06 03:29:04;;;;;;;5.47;3.55;;;3.20;99.90;;;;;;5073654;28;20233;-61
2023/03/06 03:31:31;;;;;;;7.22;3.40;;;3.20;99.90;;;;;;5073667;28;20200;-63
2023/03/06 03:33:59;;;;;;;4.85;3.15;;;3.20;99.90;;;;;;5073687;28;20201;-61
2023/03/06 03:36:26;;;;;;;6.35;3.00;;;3.20;99.90;;;;;;5073594;28;20197;-60
2023/03/06 03:38:53;;;;;;;5.07;3.35;;;3.20;99.90;;;;;;5073701;28;20224;-61
2023/03/06 03:41:20;;;;;;;2.75;2.55;;;3.10;99.90;;;;;;5073923;28;20264;-62
2023/03/06 03:43:47;;;;;;;4.20;2.78;;;3.10;99.90;;;;;;5073165;28;20213;-61
2023/03/06 03:46:14;;;;;;;3.53;2.70;;;3.10;99.90;;;;;;5073463;28;20280;-61
2023/03/06 03:48:40;;;;;;;3.38;2.75;;;3.20;99.90;;;;;;5073249;28;20225;-59
2023/03/06 03:51:10;;;;;;;5.63;2.90;;;3.10;99.90;;;;;;5073283;28;20201;-61
2023/03/06 03:53:37;;;;;;;5.28;2.90;;;3.10;99.90;;;;;;5072891;28;20205;-61
2023/03/06 03:56:05;;;;;;;4.03;3.15;;;3.10;99.90;;;;;;5073264;28;20207;-61
2023/03/06 03:58:31;;;;;;;2.97;2.75;;;3.10;99.90;;;;;;5072780;28;20225;-61
2023/03/06 04:00:58;;;;;;;3.33;2.97;;;3.10;99.90;;;;;;5072811;28;20246;-62
2023/03/06 04:03:25;;;;;;;4.20;2.92;;;3.10;99.90;;;;;;5073257;28;20208;-61
2023/03/06 04:05:53;;;;;;;3.67;2.70;;;3.10;99.90;;;;;;5072828;28;20208;-61
2023/03/06 04:11:20;;;;;;;4.85;3.15;;;3.10;99.90;;;;;;5091354;27;20619;-63
2023/03/06 04:13:47;;;;;;;3.42;2.83;;;3.10;99.90;;;;;;5090605;28;20211;-63
2023/03/06 04:16:14;;;;;;;3.10;2.80;;;3.10;99.90;;;;;;5090919;28;20192;-62
2023/03/06 04:18:41;;;;;;;5.38;2.72;;;3.10;99.90;;;;;;5091434;28;20226;-62
2023/03/06 04:21:07;;;;;;;5.93;2.53;;;3.10;99.90;;;;;;5092304;28;20197;-61
2023/03/06 04:23:34;;;;;;;4.65;3.13;;;3.10;99.90;;;;;;5091725;28;20196;-62
2023/03/06 04:26:01;;;;;;;3.20;2.90;;;3.10;99.90;;;;;;5091435;28;20215;-62
2023/03/06 04:28:29;;;;;;;4.13;3.70;;;3.10;99.90;;;;;;5092853;28;20220;-62
2023/03/06 04:30:56;;;;;;;5.00;2.95;;;3.20;99.90;;;;;;5096247;28;20220;-59
2023/03/06 04:33:23;;;;;;;4.65;3.55;;;3.10;99.90;;;;;;5093293;28;20196;-63
2023/03/06 04:35:49;;;;;;;2.95;2.65;;;3.10;99.90;;;;;;5091237;28;20211;-62
2023/03/06 04:38:16;;;;;;;10.20;2.72;;;3.20;99.90;;;;;;5090937;28;20220;-62
2023/03/06 04:40:43;;;;;;;3.15;2.47;;;3.20;99.90;;;;;;5090610;28;20204;-62
2023/03/06 04:43:10;;;;;;;4.20;3.13;;;3.10;99.90;;;;;;5090844;28;20204;-62
2023/03/06 04:45:38;;;;;;;3.65;2.53;;;3.10;99.90;;;;;;5091061;28;20204;-62
2023/03/06 04:48:05;;;;;;;4.25;3.10;;;3.10;99.90;;;;;;5090368;28;20207;-63
2023/03/06 04:50:32;;;;;;;5.47;3.00;;;3.10;99.90;;;;;;5091004;28;20216;-62
2023/03/06 04:53:00;;;;;;;5.05;3.15;;;3.10;99.90;;;;;;5091680;28;20201;-61
2023/03/06 04:55:27;;;;;;;3.20;2.67;;;3.10;99.90;;;;;;5090076;28;20200;-63
2023/03/06 04:57:54;;;;;;;3.72;2.78;;;3.10;99.90;;;;;;5090001;28;20567;-63
2023/03/06 05:00:23;;;;;;;5.63;2.90;;;3.10;99.90;;;;;;5090134;28;20196;-62
2023/03/06 05:02:52;;;;;;;8.10;3.53;;;3.20;99.90;;;;;;5091682;28;20724;-62
2023/03/06 05:05:19;;;;;;;3.92;3.20;;;3.20;99.90;;;;;;5092134;28;20205;-62
2023/03/06 05:07:46;;;;;;;4.28;3.00;;;3.20;99.90;;;;;;5094866;28;20207;-62
2023/03/06 05:10:15;;;;;;;4.45;2.42;;;3.20;99.90;;;;;;5095142;28;20220;-62
2023/03/06 05:12:42;;;;;;;4.75;2.90;;;3.20;99.90;;;;;;5096804;28;20204;-62
2023/03/06 05:15:10;;;;;;;3.97;2.78;;;3.20;99.90;;;;;;5101102;28;20673;-62
2023/03/06 05:17:38;;;;;;;8.80;3.15;;;3.20;99.90;;;;;;5104833;28;20201;-61
2023/03/06 05:20:08;;;;;;;3.75;2.88;;;3.10;99.90;;;;;;5098831;28;20213;-63
2023/03/06 05:22:35;;;;;;;9.23;3.53;;;3.20;99.90;;;;;;5082610;28;20185;-62
2023/03/06 05:25:03;;;;;;;8.18;3.97;;;3.10;99.90;;;;;;5075637;28;20205;-62
2023/03/06 05:27:31;;;;;;;5.88;3.60;;;3.20;99.90;;;;;;5075784;28;20670;-62
2023/03/06 05:29:57;;;;;;;6.63;3.55;;;3.20;99.90;;;;;;5075745;28;20221;-62
2023/03/06 05:32:24;;;;;;;4.20;2.92;;;3.20;99.90;;;;;;5075798;28;20207;-62
2023/03/06 05:34:51;;;;;;;3.50;2.92;;;3.20;99.90;;;;;;5075700;28;20212;-62
2023/03/06 05:37:19;;;;;;;4.43;3.35;;;3.20;99.90;;;;;;5075668;28;20219;-63
2023/03/06 05:39:46;;;;;;;4.70;2.92;;;3.20;99.90;;;;;;5075525;28;20228;-62
2023/03/06 05:42:13;;;;;;;4.20;3.40;;;3.20;99.90;;;;;;5076776;28;20205;-63
2023/03/06 05:44:40;;;;;;;6.45;3.53;;;3.20;99.90;;;;;;5075527;28;20197;-61
2023/03/06 05:47:07;;;;;;;7.20;3.97;;;3.20;99.90;;;;;;5075587;28;20204;-63
2023/03/06 05:49:36;;;;;;;5.82;3.35;;;3.20;99.90;;;;;;5075646;28;20220;-62
2023/03/06 05:52:04;;;;;;;7.85;4.10;;;3.20;99.90;;;;;;5075687;28;20205;-63
2023/03/06 05:54:33;;;;;;;4.65;3.33;;;3.20;99.90;;;;;;5075375;28;20201;-63
2023/03/06 05:56:59;;;;;;;7.07;3.45;;;3.20;99.90;;;;;;5076577;28;20204;-62
2023/03/06 05:59:27;;;;;;;6.15;3.85;;;3.20;99.90;;;;;;5070754;28;20240;-63
2023/03/06 06:01:54;;;;;;;8.82;4.15;;;3.20;99.90;;;;;;5057675;28;20229;-62
2023/03/06 06:04:22;;;;;;;5.50;3.65;;;3.20;99.90;;;;;;5055656;28;20210;-60
2023/03/06 06:06:52;;;;;;;12.00;4.00;;;3.20;99.90;;;;;;5059977;28;20197;-63
2023/03/06 06:09:19;;;;;;;12.73;4.97;;;3.20;99.90;;;;;;5055354;28;20230;-62
2023/03/06 06:11:47;;;;;;;4.68;3.90;;;3.20;99.90;;;;;;5053611;28;20297;-62
2023/03/06 06:14:14;;;;;;;8.18;4.03;;;3.10;99.90;;;;;;5054691;28;20209;-62
2023/03/06 06:16:41;;;;;;;4.85;4.43;;;3.10;99.90;;;;;;5058340;28;20202;-62
2023/03/06 06:19:08;;;;;;;13.23;4.70;;;3.10;99.90;;;;;;5068568;28;20593;-62
2023/03/06 06:21:35;;;;;;;5.63;4.40;;;3.10;99.90;;;;;;5060422;28;20193;-64
2023/03/06 06:24:01;;;;;;;7.47;4.30;;;3.10;99.90;;;;;;5062491;28;20210;-62
2023/03/06 06:26:28;;;;;;;9.50;4.70;;;3.10;99.90;;;;;;5063380;28;20205;-62
2023/03/06 06:28:56;;;;;;;5.50;4.10;;;3.10;99.90;;;;;;5063183;28;20221;-63
2023/03/06 06:31:23;;;;;;;6.38;4.28;;;3.10;99.90;;;;;;5055932;28;20218;-63
2023/03/06 06:33:50;;;;;;;6.03;4.50;;;3.00;99.90;;;;;;5055204;28;20209;-62
2023/03/06 06:36:18;;;;;;;7.90;5.25;;;3.00;99.90;;;;;;5059456;28;20206;-65
2023/03/06 06:38:45;;;;;;;9.90;4.60;;;3.00;99.90;;;;;;5074802;28;20225;-63
2023/03/06 06:41:12;;;;;;;12.30;5.43;;;3.00;99.90;;;;;;5062379;28;20675;-63
2023/03/06 06:43:39;;;;;;;8.25;5.78;;;3.00;99.90;;;;;;5064641;28;20668;-62
2023/03/06 06:46:07;;;;;;;9.00;5.03;;;3.00;99.90;;;;;;5063387;28;20280;-63
2023/03/06 06:48:36;;;;;;;6.15;4.25;;;3.00;99.90;;;;;;5071556;28;20225;-62
2023/03/06 06:51:03;;;;;;;9.07;5.78;;;3.00;99.90;;;;;;5065587;28;20259;-62
2023/03/06 06:53:30;;;;;;;6.63;5.00;;;3.00;99.90;;;;;;5056257;28;20617;-62
2023/03/06 06:55:58;;;;;;;7.03;4.55;;;3.00;99.90;;;;;;5055336;28;20667;-63
2023/03/06 06:58:25;;;;;;;6.13;4.68;;;3.00;99.90;;;;;;5061104;28;20707;-63
2023/03/06 07:00:52;;;;;;;10.85;5.30;;;3.10;99.90;;;;;;5067867;28;20217;-62
2023/03/06 07:03:20;;;;;;;6.32;5.18;;;3.00;99.90;;;;;;5060037;28;20608;-63
2023/03/06 07:05:54;;;;;;;6.60;4.75;;;3.00;99.90;;;;;;5061218;28;20272;-63
2023/03/06 07:08:21;;;;;;;8.32;4.43;;;3.00;99.90;;;;;;5058137;28;20217;-64
2023/03/06 07:10:48;;;;;;;7.40;5.20;;;3.00;99.90;;;;;;5073653;28;20231;-63
2023/03/06 07:13:15;;;;;;;6.95;4.90;;;3.00;99.90;;;;;;5061677;28;20201;-63
2023/03/06 07:15:42;;;;;;;8.93;5.70;;;3.00;99.90;;;;;;5061381;28;20206;-61
2023/03/06 07:18:08;;;;;;;7.25;5.15;;;3.00;99.90;;;;;;5056896;28;20205;-64
2023/03/06 07:20:37;;;;;;;6.25;5.07;;;2.90;99.90;;;;;;5055331;28;20284;-62
2023/03/06 07:23:03;;;;;;;6.07;5.20;;;2.90;99.90;;;;;;5054931;28;20210;-62
2023/03/06 07:25:30;;;;;;;9.35;4.80;;;2.90;99.90;;;;;;5059039;28;20198;-62
2023/03/06 07:27:57;;;;;;;7.88;5.25;;;2.80;99.90;;;;;;5066285;28;20208;-62
2023/03/06 07:30:24;;;;;;;8.35;5.40;;;2.80;99.90;;;;;;5056603;28;20221;-62
2023/03/06 07:32:55;;;;;;;9.20;5.95;;;2.80;99.90;;;;;;5059404;28;20236;-62
2023/03/06 07:35:23;;;;;;;9.23;7.22;;;2.80;99.90;;;;;;5075361;28;20557;-63
2023/03/06 07:37:51;;;;;;;10.15;5.95;;;2.80;99.90;;;;;;5067643;28;20677;-62
2023/03/06 07:40:19;;;;;;;12.35;6.95;;;2.90;99.90;;;;;;5060031;28;20214;-63
2023/03/06 07:42:46;;;;;;;9.07;6.70;;;2.90;99.90;;;;;;5061946;28;20205;-63
2023/03/06 07:45:22;;;;;;;9.45;6.88;;;2.90;99.90;;;;;;5067039;28;20685;-62
2023/03/06 07:47:50;;;;;;;15.35;7.85;;;2.90;99.90;;;;;;5069367;28;20201;-63
2023/03/06 07:50:17;;;;;;;10.32;7.13;;;2.90;99.90;;;;;;5056452;28;20217;-61
2023/03/06 07:52:43;;;;;;;15.85;6.50;;;2.90;99.90;;;;;;5074380;28;20201;-62
2023/03/06 07:55:12;;;;;;;8.90;5.72;;;2.90;99.90;;;;;;5070449;28;20330;-63
2023/03/06 07:57:39;;;;;;;8.32;6.45;;;2.90;99.90;;;;;;5074870;28;20201;-61
2023/03/06 08:00:11;;;;;;;8.05;7.25;;;2.80;99.90;;;;;;5062650;28;20214;-61
2023/03/06 08:02:38;;;;;;;9.68;5.70;;;2.70;99.90;;;;;;5059238;28;20285;-62
2023/03/06 08:05:06;;;;;;;6.88;5.65;;;2.60;99.90;;;;;;5073787;28;20233;-67
2023/03/06 08:07:33;;;;;;;12.45;6.72;;;2.60;99.90;;;;;;5074523;28;20209;-62
2023/03/06 08:10:00;;;;;;;8.10;5.90;;;2.50;99.90;;;;;;5062359;28;20228;-63
2023/03/06 08:12:28;;;;;;;7.60;6.05;;;2.50;99.90;;;;;;5061790;28;20302;-62
2023/03/06 08:14:55;;;;;;;7.97;5.70;;;2.50;99.90;;;;;;5071097;28;20223;-63
2023/03/06 08:17:22;;;;;;;6.32;4.88;;;2.50;99.90;;;;;;5056908;28;20197;-64
2023/03/06 08:19:48;;;;;;;11.18;6.20;;;2.50;99.90;;;;;;5073462;28;20285;-63
2023/03/06 08:22:15;;;;;;;10.00;6.85;;;2.60;99.90;;;;;;5053492;28;20293;-64
2023/03/06 08:24:42;;;;;;;9.13;5.35;;;2.60;99.90;;;;;;5054227;28;20232;-63
2023/03/06 08:27:09;;;;;;;8.55;6.47;;;2.60;99.90;;;;;;5054128;28;20663;-63
2023/03/06 08:29:37;;;;;;;8.85;6.88;;;2.70;99.90;;;;;;5054611;28;20702;-63
2023/03/06 08:32:04;;;;;;;8.02;6.13;;;2.70;99.90;;;;;;5067706;28;20592;-63
2023/03/06 08:34:31;;;;;;;9.32;6.00;;;2.70;99.90;;;;;;5061491;28;20206;-63
2023/03/06 08:36:57;;;;;;;6.55;5.75;;;2.70;99.90;;;;;;5056419;28;20201;-63
2023/03/06 08:39:24;;;;;;;8.13;5.68;;;2.60;99.90;;;;;;5057523;28;20235;-63
2023/03/06 08:41:51;;;;;;;7.40;5.07;;;2.70;99.90;;;;;;5064571;28;20216;-63
2023/03/06 08:44:18;;;;;;;6.70;4.50;;;2.60;99.90;;;;;;5057297;28;20205;-63
2023/03/06 08:46:46;;;;;;;5.90;3.83;;;2.60;99.90;;;;;;5070177;28;20201;-63
2023/03/06 08:49:13;;;;;;;4.85;3.50;;;2.60;99.90;;;;;;5075346;28;20228;-64
2023/03/06 08:51:41;;;;;;;3.85;2.65;;;2.50;99.90;;;;;;5078026;28;20232;-64
2023/03/06 08:54:08;;;;;;;3.05;2.20;;;2.40;99.90;;;;;;5076449;28;20201;-64
2023/03/06 08:56:35;;;;;;;2.40;2.20;;;2.40;99.90;;;;;;5079407;28;20201;-67
2023/03/06 08:59:04;;;;;;;2.95;2.13;;;2.40;99.90;;;;;;5072172;28;20213;-62
2023/03/06 09:01:33;;;;;;;1.75;1.45;;;2.30;99.90;;;;;;5080862;28;20197;-63
2023/03/06 09:04:04;;;;;;;6.07;2.70;;;2.30;99.90;;;;;;5082959;28;20659;-63
2023/03/06 09:06:32;;;;;;;7.10;2.42;;;2.30;99.90;;;;;;5082712;28;20189;-60
2023/03/06 09:09:01;;;;;;;2.17;1.98;;;2.20;99.90;;;;;;5086588;28;20221;-64
2023/03/06 09:11:28;;;;;;;2.10;1.60;;;2.20;99.90;;;;;;5074750;28;20221;-62
2023/03/06 09:13:57;;;;;;;3.75;1.90;;;2.10;99.90;;;;;;5069353;28;20201;-65
2023/03/06 09:16:24;;;;;;;2.35;2.00;;;2.00;99.90;;;;;;5075502;28;20233;-62
2023/03/06 09:18:53;;;;;;;2.00;1.40;;;1.90;99.90;;;;;;5076844;28;20216;-63
2023/03/06 09:21:22;;;;;;;2.95;1.90;;;1.90;99.90;;;;;;5074115;28;20200;-63
2023/03/06 09:23:49;;;;;;;3.15;1.85;;;1.80;99.90;;;;;;5060826;28;20205;-64
2023/03/06 09:26:16;;;;;;;2.65;1.80;;;1.80;99.90;;;;;;5056364;28;20213;-62
2023/03/06 09:28:43;;;;;;;3.25;1.52;;;1.80;99.90;;;;;;5074168;28;20228;-63
2023/03/06 09:31:11;;;;;;;2.42;1.58;;;1.80;99.90;;;;;;5074508;28;20660;-63
2023/03/06 09:33:38;;;;;;;1.80;1.70;;;1.80;99.90;;;;;;5057149;28;20209;-64
2023/03/06 09:36:07;;;;;;;3.63;1.63;;;1.70;99.90;;;;;;5068588;28;20688;-63
2023/03/06 09:38:35;;;;;;;2.90;2.33;;;1.70;99.90;;;;;;5075185;28;20630;-67
2023/03/06 09:41:08;;;;;;;2.78;1.80;;;1.70;99.90;;;;;;5064232;28;20202;-66
2023/03/06 09:43:37;;;;;;;2.50;1.70;;;1.60;99.90;;;;;;5071793;28;20547;-65
2023/03/06 09:46:18;;;;;;;2.28;1.77;;;1.60;99.90;;;;;;5061779;28;20213;-63
2023/03/06 09:48:57;;;;;;;2.25;1.50;;;1.70;99.90;;;;;;5058612;28;20225;-65
2023/03/06 09:51:31;;;;;;;1.63;1.52;;;1.70;99.90;;;;;;5060059;28;20213;-64
2023/03/06 09:54:11;;;;;;;3.15;1.45;;;1.70;99.90;;;;;;5060409;28;20193;-62
2023/03/06 09:56:38;;;;;;;3.28;1.50;;;1.80;99.90;;;;;;5074835;28;20196;-64
2023/03/06 09:59:13;;;;;;;2.30;1.20;;;1.80;99.90;;;;;;5063020;28;20218;-64
2023/03/06 10:01:43;;;;;;;1.95;1.40;;;1.80;99.90;;;;;;5056921;28;20628;-64
2023/03/06 10:04:32;;;;;;;2.70;1.40;;;1.80;99.90;;;;;;5057699;28;20319;-65
2023/03/06 10:07:05;;;;;;;2.13;1.45;;;1.80;99.90;;;;;;5061722;28;20206;-65
2023/03/06 10:09:41;;;;;;;2.00;1.48;;;1.70;99.90;;;;;;5057804;28;20229;-64
2023/03/06 10:12:19;;;;;;;4.80;2.35;;;1.70;99.90;;;;;;5055502;28;20213;-61
2023/03/06 10:14:48;;;;;;;2.47;1.33;;;1.80;99.90;;;;;;5058508;28;20279;-62
2023/03/06 10:17:18;;;;;;;1.67;1.02;;;1.80;99.90;;;;;;5058299;28;20233;-64
2023/03/06 10:19:46;;;;;;;1.52;1.40;;;1.80;99.90;;;;;;5059612;28;20220;-62
2023/03/06 10:22:24;;;;;;;2.60;1.90;;;1.90;99.90;;;;;;5058820;28;20201;-63
2023/03/06 10:24:57;;;;;;;1.10;1.00;;;1.90;99.90;;;;;;5065694;28;20193;-65
2023/03/06 10:27:35;;;;;;;1.42;1.33;;;2.00;99.90;;;;;;5064151;28;20289;-64
2023/03/06 10:30:18;;;;;;;1.55;1.27;;;2.00;99.90;;;;;;5059003;28;20225;-61
2023/03/06 10:32:51;;;;;;;0.90;0.90;;;2.10;99.90;;;;;;5065465;28;20249;-61
2023/03/06 10:35:49;;;;;;;1.40;1.02;;;2.20;99.90;;;;;;5071092;28;20212;-60
2023/03/06 10:38:20;;;;;;;1.85;0.80;;;2.20;99.90;;;;;;5058697;28;20283;-63
2023/03/06 10:40:59;;;;;;;2.78;1.10;;;2.30;99.90;;;;;;5055840;28;20206;-63
2023/03/06 10:43:26;;;;;;;1.52;1.02;;;2.40;99.90;;;;;;5059264;28;20202;-64
2023/03/06 10:45:53;;;;;;;1.73;1.05;;;2.50;99.90;;;;;;5071619;28;20193;-65
2023/03/06 10:48:23;;;;;;;1.10;1.00;;;2.60;99.90;;;;;;5059033;28;20725;-64
2023/03/06 10:50:51;;;;;;;1.73;0.85;;;2.80;99.90;;;;;;5071120;28;20276;-64
2023/03/06 10:53:24;;;;;;;3.40;0.93;;;3.00;99.90;;;;;;5074216;28;20265;-62
2023/03/06 10:55:54;;;;;;;1.15;1.05;;;3.10;99.90;;;;;;5055673;28;20667;-63
2023/03/06 10:58:25;;;;;;;2.20;1.30;;;3.30;99.90;;;;;;5055236;28;20313;-62
2023/03/06 11:01:06;;;;;;;2.35;1.13;;;3.50;99.90;;;;;;5055359;28;20213;-63
2023/03/06 11:03:34;;;;;;;1.20;1.10;;;3.60;99.90;;;;;;5060952;28;20204;-62
2023/03/06 11:06:06;;;;;;;1.45;0.93;;;3.60;99.90;;;;;;5057635;28;20193;-62
2023/03/06 11:08:34;;;;;;;1.92;0.90;;;3.70;99.90;;;;;;5058022;28;20228;-63
2023/03/06 11:11:04;;;;;;;2.95;1.20;;;3.60;99.90;;;;;;5056773;28;20218;-62
2023/03/06 11:13:34;;;;;;;2.92;1.60;;;3.50;99.90;;;;;;5055935;28;20190;-68
2023/03/06 11:16:04;;;;;;;4.25;2.22;;;3.40;99.90;;;;;;5058208;28;20694;-63
2023/03/06 11:18:35;;;;;;;1.35;1.25;;;3.40;99.90;;;;;;5057377;28;20226;-63
2023/03/06 11:21:07;;;;;;;3.45;1.83;;;3.30;99.90;;;;;;5056531;28;20182;-62
2023/03/06 11:23:41;;;;;;;1.55;1.45;;;3.30;99.90;;;;;;5058982;28;20194;-63
2023/03/06 11:26:26;;;;;;;1.50;1.35;;;3.40;99.90;;;;;;5058324;28;20192;-64
2023/03/06 11:29:02;;;;;;;1.52;1.42;;;3.40;99.90;;;;;;5057000;28;20221;-62
2023/03/06 11:31:32;;;;;;;1.95;1.33;;;3.50;99.90;;;;;;5057795;28;20225;-61
2023/03/06 11:34:05;;;;;;;2.92;1.45;;;3.60;99.90;;;;;;5057241;28;20208;-62
2023/03/06 11:36:38;;;;;;;3.13;2.33;;;3.80;99.90;;;;;;5057207;28;20189;-61
2023/03/06 11:39:18;;;;;;;3.30;1.52;;;3.90;99.90;;;;;;5057156;28;20240;-62
2023/03/06 11:41:53;;;;;;;1.40;1.30;;;4.10;99.90;;;;;;5056870;28;20236;-62
2023/03/06 11:44:30;;;;;;;2.53;0.95;;;4.30;99.90;;;;;;5057593;28;20654;-60
2023/03/06 11:47:05;;;;;;;1.85;1.20;;;4.30;99.90;;;;;;5056655;28;20192;-61
2023/03/06 11:49:37;;;;;;;3.60;1.48;;;4.40;99.90;;;;;;5059715;28;20227;-60
2023/03/06 11:52:11;;;;;;;8.10;2.08;;;4.60;99.90;;;;;;5056258;28;20205;-62
2023/03/06 11:54:38;;;;;;;1.50;1.40;;;4.70;99.90;;;;;;5057135;28;20240;-60
2023/03/06 11:57:15;;;;;;;3.35;1.30;;;4.80;99.90;;;;;;5058307;28;20283;-63
2023/03/06 11:59:58;;;;;;;2.03;1.63;;;4.90;99.90;;;;;;5058178;28;20270;-62
2023/03/06 12:02:50;;;;;;;1.70;1.27;;;5.00;99.90;;;;;;5054869;28;20635;-62
2023/03/06 12:05:32;;;;;;;2.10;1.33;;;5.00;99.90;;;;;;5060399;28;20196;-62
2023/03/06 12:08:08;;;;;;;1.92;1.45;;;5.00;99.90;;;;;;5057628;28;20186;-64
2023/03/06 12:10:41;;;;;;;2.38;1.50;;;5.00;99.90;;;;;;5056750;28;20213;-62
2023/03/06 12:13:28;;;;;;;2.40;1.55;;;5.00;99.90;;;;;;5057883;28;20209;-63
2023/03/06 12:16:12;;;;;;;4.30;1.42;;;5.00;99.90;;;;;;5056928;28;20200;-63
2023/03/06 12:18:50;;;;;;;1.67;1.20;;;5.00;99.90;;;;;;5057825;28;20230;-62
2023/03/06 12:21:24;;;;;;;1.70;1.25;;;4.80;99.90;;;;;;5057534;28;20186;-61
2023/03/06 12:24:06;;;;;;;2.08;1.80;;;4.70;99.90;;;;;;5057744;28;20186;-61
2023/03/06 12:26:50;;;;;;;2.35;1.25;;;4.60;99.90;;;;;;5058639;28;20264;-62
2023/03/06 12:29:47;;;;;;;2.45;1.10;;;4.60;99.90;;;;;;5058337;28;20218;-64
2023/03/06 12:32:24;;;;;;;2.17;1.15;;;4.70;99.90;;;;;;5060774;28;20206;-62
2023/03/06 12:35:14;;;;;;;0.95;0.85;;;4.70;99.90;;;;;;5062272;28;20186;-62
2023/03/06 12:37:54;;;;;;;2.47;1.48;;;4.80;99.90;;;;;;5064786;28;20190;-62
2023/03/06 12:40:38;;;;;;;1.13;0.98;;;4.80;99.90;;;;;;5063308;28;20372;-61
2023/03/06 12:43:36;;;;;;;1.20;1.00;;;4.70;99.90;;;;;;5063342;28;20196;-62
2023/03/06 12:46:11;;;;;;;0.98;0.88;;;4.60;99.90;;;;;;5037099;28;20205;-61
2023/03/06 12:48:41;;;;;;;1.45;1.10;;;4.40;99.20;;;;;;5062543;28;20241;-61
2023/03/06 12:51:11;;;;;;;3.03;0.82;;;4.30;98.90;;;;;;5063662;28;20198;-62
2023/03/06 12:53:40;;;;;;;1.45;1.20;;;4.30;98.00;;;;;;5060613;28;20217;-62
2023/03/06 12:56:08;;;;;;;1.98;1.45;;;4.20;97.00;;;;;;5060481;28;20202;-62
2023/03/06 12:58:45;;;;;;;2.35;1.45;;;4.10;96.60;;;;;;5061870;28;20232;-61
2023/03/06 13:01:22;;;;;;;2.55;1.50;;;4.10;96.60;;;;;;5061857;28;20197;-61
2023/03/06 13:04:03;;;;;;;2.55;1.50;;;4.20;96.90;;;;;;5061079;28;20280;-61
2023/03/06 13:06:47;;;;;;;1.73;1.05;;;4.40;96.90;;;;;;5063370;28;20189;-64
2023/03/06 13:09:22;;;;;;;1.65;1.40;;;4.70;96.80;;;;;;5063336;28;20234;-62
2023/03/06 13:12:31;;;;;;;1.98;1.20;;;5.00;95.90;;;;;;5065124;28;20190;-63
2023/03/06 13:15:00;;;;;;;3.65;1.20;;;5.00;94.60;;;;;;5003445;28;20593;-64